createdAt,value
2022-09-28T00:05:35.100Z,63.77
2022-09-28T00:15:36.530Z,63.47
2022-09-28T00:25:37.961Z,63.23
2022-09-28T00:35:39.486Z,63.24
2022-09-28T00:45:41.006Z,63.63
2022-09-28T00:55:48.509Z,63.25
2022-09-28T01:05:52.467Z,63.24
2022-09-28T01:16:15.438Z,63.38
2022-09-28T01:26:36.179Z,63.27
2022-09-28T01:36:48.613Z,63.25
2022-09-28T01:46:53.456Z,63.65
2022-09-28T01:57:02.364Z,63.34
2022-09-28T02:07:04.039Z,64.11
2022-09-28T02:17:06.327Z,64.53
2022-09-28T02:27:21.177Z,64.12
2022-09-28T02:37:22.881Z,64.42
2022-09-28T02:47:39.663Z,64.33
2022-09-28T02:58:07.185Z,64.30
2022-09-28T03:08:24.345Z,64.60
2022-09-28T03:18:25.827Z,64.52
2022-09-28T03:28:28.169Z,64.92
2022-09-28T03:38:30.091Z,65.61
2022-09-28T03:48:34.158Z,65.62
2022-09-28T03:58:35.673Z,65.97
2022-09-28T04:08:38.361Z,66.33
2022-09-28T04:18:40.024Z,66.59
2022-09-28T04:29:13.795Z,66.42
2022-09-28T04:39:19.106Z,66.46
2022-09-28T04:49:24.676Z,66.56
2022-09-28T04:59:37.575Z,67.31
2022-09-28T05:09:39.620Z,67.18
2022-09-28T05:19:41.113Z,67.63
2022-09-28T05:29:43.331Z,67.29
2022-09-28T05:40:05.920Z,66.86
2022-09-28T05:50:09.708Z,66.54
2022-09-28T06:00:11.869Z,66.36
2022-09-28T06:10:22.319Z,66.11
2022-09-28T06:20:25.833Z,65.64
2022-09-28T06:30:33.935Z,64.97
2022-09-28T06:40:36.426Z,64.49
2022-09-28T06:50:41.100Z,64.29
2022-09-28T07:01:01.652Z,63.80
2022-09-28T07:11:09.036Z,64.04
2022-09-28T07:21:29.277Z,66.02
2022-09-28T07:31:33.708Z,64.34
2022-09-28T07:41:56.710Z,63.28
2022-09-28T07:52:01.563Z,62.80
2022-09-28T08:02:03.043Z,61.49
2022-09-28T08:12:05.207Z,60.60
2022-09-28T08:22:20.229Z,60.08
2022-09-28T08:32:24.693Z,59.55
2022-09-28T08:43:01.019Z,58.80
2022-09-28T08:53:35.107Z,58.34
2022-09-28T09:03:47.049Z,57.35
2022-09-28T09:14:21.748Z,54.50
2022-09-28T09:24:30.447Z,52.42
2022-09-28T09:35:12.388Z,49.73
2022-09-28T09:46:11.619Z,48.24
2022-09-28T09:56:48.825Z,45.33
2022-09-28T10:07:24.304Z,40.81
2022-09-28T10:17:27.585Z,44.01
2022-09-28T10:27:49.581Z,46.42
2022-09-28T10:38:06.488Z,45.80
2022-09-28T10:48:47.064Z,45.22
2022-09-28T10:58:48.837Z,47.19
2022-09-28T11:09:33.241Z,47.54
2022-09-28T11:19:40.880Z,46.83
2022-09-28T11:29:46.033Z,45.19
2022-09-28T11:40:29.423Z,43.32
2022-09-28T11:50:50.851Z,43.60
2022-09-28T12:01:03.707Z,42.27
2022-09-28T12:11:35.868Z,42.20
2022-09-28T12:21:59.543Z,42.16
2022-09-28T12:32:12.918Z,42.25
2022-09-28T12:42:27.581Z,43.36
2022-09-28T12:52:50.038Z,43.83
2022-09-28T13:03:19.617Z,42.69
2022-09-28T13:13:47.417Z,41.90
2022-09-28T13:23:51.954Z,43.38
2022-09-28T13:33:53.826Z,41.98
2022-09-28T13:44:13.550Z,41.21
2022-09-28T13:54:41.917Z,41.53
2022-09-28T14:04:54.171Z,41.19
2022-09-28T14:14:56.712Z,42.36
2022-09-28T14:25:24.492Z,42.00
2022-09-28T14:35:39.178Z,42.57
2022-09-28T14:45:42.333Z,43.32
2022-09-28T14:55:55.438Z,44.42
2022-09-28T15:05:56.976Z,45.69
2022-09-28T15:16:11.371Z,46.60
2022-09-28T15:26:47.950Z,47.86
2022-09-28T15:36:49.916Z,49.16
2022-09-28T15:47:05.133Z,50.06
2022-09-28T15:57:06.803Z,51.47
2022-09-28T16:07:33.549Z,52.43
2022-09-28T16:17:35.339Z,54.00
2022-09-28T16:27:41.860Z,55.02
2022-09-28T16:37:43.307Z,55.99
2022-09-28T16:47:45.063Z,56.75
2022-09-28T16:57:50.185Z,58.11
2022-09-28T17:08:03.936Z,57.65
2022-09-28T17:18:06.040Z,57.64
2022-09-28T17:28:27.274Z,57.93
2022-09-28T17:38:28.741Z,58.57
2022-09-28T17:48:30.869Z,59.19
2022-09-28T17:58:32.278Z,59.61
2022-09-28T18:08:34.378Z,60.33
2022-09-28T18:18:39.797Z,60.33
2022-09-28T18:28:41.566Z,60.61
2022-09-28T18:38:43.045Z,61.38
2022-09-28T18:48:44.663Z,61.46
2022-09-28T18:58:47.645Z,61.72
2022-09-28T19:08:53.752Z,62.09
2022-09-28T19:18:58.857Z,61.84
2022-09-28T19:29:00.723Z,61.83
2022-09-28T19:39:03.278Z,62.11
2022-09-28T19:49:19.307Z,62.25
2022-09-28T19:59:21.791Z,61.97
2022-09-28T20:09:23.253Z,61.92
2022-09-28T20:19:24.697Z,62.14
2022-09-28T20:29:26.666Z,62.39
2022-09-28T20:39:28.150Z,62.53
2022-09-28T20:49:29.635Z,62.82
2022-09-28T20:59:31.159Z,62.30
2022-09-28T21:09:32.955Z,61.87
2022-09-28T21:19:34.508Z,62.04
2022-09-28T21:29:35.962Z,62.01
2022-09-28T21:39:37.571Z,61.90
2022-09-28T21:49:39.038Z,62.10
2022-09-28T21:59:40.942Z,62.42
2022-09-28T22:09:42.430Z,62.29
2022-09-28T22:19:43.889Z,62.72
2022-09-28T22:29:46.121Z,63.18
2022-09-28T22:39:47.882Z,63.94
2022-09-28T22:49:49.369Z,64.96
2022-09-28T22:59:50.920Z,65.14
2022-09-28T23:09:52.363Z,64.83
2022-09-28T23:19:53.797Z,64.68
2022-09-28T23:29:55.273Z,64.70
2022-09-28T23:39:56.726Z,64.55
2022-09-28T23:49:58.261Z,65.04
2022-09-28T23:59:59.892Z,64.69
